Time;durP1;ratioP1;P1;durP2;ratioP2;P2;SDS_P1;SDS_P2;PMS_P1;PMS_P2;Temp;Humidity;BMP_temperature;BMP_pressure;BME280_temperature;BME280_humidity;BME280_pressure;Samples;Min_cycle;Max_cycle;Signal;HPM_P1;HPM_P2
2022/04/18 00:00:22;;;;;;;3.30;2.17;;;5.80;94.90;;;;;;5031048;28;20697;-58
2022/04/18 00:02:50;;;;;;;4.87;2.40;;;5.70;94.90;;;;;;5030893;28;20210;-58
2022/04/18 00:05:17;;;;;;;2.83;2.20;;;5.70;95.10;;;;;;5032482;28;20213;-58
2022/04/18 00:07:44;;;;;;;3.87;2.30;;;5.70;95.20;;;;;;5035034;28;20264;-58
2022/04/18 00:10:10;;;;;;;3.57;2.10;;;5.60;95.20;;;;;;5034801;28;20203;-58
2022/04/18 00:12:37;;;;;;;2.90;2.13;;;5.60;95.30;;;;;;5034405;28;20517;-58
2022/04/18 00:15:05;;;;;;;4.23;2.03;;;5.60;95.30;;;;;;5035430;28;20211;-58
2022/04/18 00:17:31;;;;;;;3.30;2.10;;;5.60;95.40;;;;;;5035368;28;20226;-58
2022/04/18 00:20:00;;;;;;;3.00;2.27;;;5.60;95.40;;;;;;5035193;28;20210;-59
2022/04/18 00:22:26;;;;;;;3.50;2.60;;;5.50;95.40;;;;;;5034506;28;20214;-58
2022/04/18 00:24:53;;;;;;;4.20;2.73;;;5.50;95.60;;;;;;5034298;28;20284;-58
2022/04/18 00:27:20;;;;;;;3.43;2.47;;;5.40;95.90;;;;;;5034769;28;20230;-58
2022/04/18 00:29:49;;;;;;;2.73;2.20;;;5.30;96.30;;;;;;5034583;28;20365;-59
2022/04/18 00:32:15;;;;;;;5.83;2.40;;;5.30;96.30;;;;;;5034127;28;20202;-58
2022/04/18 00:34:42;;;;;;;3.60;2.40;;;5.30;96.40;;;;;;5034103;28;20568;-58
2022/04/18 00:37:10;;;;;;;4.33;2.27;;;5.30;96.30;;;;;;5034009;28;20241;-58
2022/04/18 00:39:37;;;;;;;4.00;2.43;;;5.20;96.50;;;;;;5033950;28;20216;-58
2022/04/18 00:42:04;;;;;;;3.47;2.30;;;5.20;96.70;;;;;;5034091;28;20210;-58
2022/04/18 00:44:31;;;;;;;3.10;2.37;;;5.10;96.70;;;;;;5034119;28;20241;-59
2022/04/18 00:46:58;;;;;;;4.10;2.30;;;5.00;97.00;;;;;;5033801;28;20234;-58
2022/04/18 00:49:24;;;;;;;5.13;2.80;;;4.90;97.40;;;;;;5034079;28;20260;-60
2022/04/18 00:51:51;;;;;;;3.47;2.23;;;4.80;97.50;;;;;;5033727;28;20317;-58
2022/04/18 00:54:20;;;;;;;4.07;2.33;;;4.70;97.80;;;;;;5033826;28;20206;-59
2022/04/18 00:56:46;;;;;;;4.33;2.60;;;4.70;97.90;;;;;;5033912;28;20284;-59
2022/04/18 00:59:13;;;;;;;3.33;2.70;;;4.70;98.10;;;;;;5034074;28;20202;-59
2022/04/18 01:01:40;;;;;;;3.33;2.63;;;4.70;98.40;;;;;;5034003;28;20257;-58
2022/04/18 01:04:07;;;;;;;4.37;2.70;;;4.70;98.40;;;;;;5034017;28;20206;-59
2022/04/18 01:06:34;;;;;;;4.97;2.50;;;4.60;98.50;;;;;;5033883;28;20223;-59
2022/04/18 01:09:02;;;;;;;3.00;2.20;;;4.60;98.60;;;;;;5033962;28;20214;-58
2022/04/18 01:11:30;;;;;;;13.10;9.67;;;4.60;98.70;;;;;;5033851;28;20202;-59
2022/04/18 01:14:02;;;;;;;22.43;18.07;;;4.60;98.90;;;;;;5033815;28;20221;-59
2022/04/18 01:16:29;;;;;;;3.23;2.90;;;4.60;98.90;;;;;;5032800;28;20607;-59
2022/04/18 01:18:57;;;;;;;3.33;2.63;;;4.60;98.90;;;;;;5033489;28;20214;-59
2022/04/18 01:21:25;;;;;;;4.53;3.80;;;4.50;99.00;;;;;;5033364;28;20212;-59
2022/04/18 01:23:54;;;;;;;3.47;2.73;;;4.50;99.20;;;;;;5033408;28;20289;-58
2022/04/18 01:29:16;;;;;;;4.57;2.40;;;4.50;99.30;;;;;;4972208;28;20350;-60
2022/04/18 01:31:42;;;;;;;4.30;2.43;;;4.40;99.50;;;;;;5018505;28;20214;-58
2022/04/18 01:34:09;;;;;;;2.70;2.40;;;4.40;99.70;;;;;;5033347;28;20206;-59
2022/04/18 01:36:37;;;;;;;3.43;2.40;;;4.30;99.90;;;;;;5033382;28;20233;-58
2022/04/18 01:39:04;;;;;;;3.00;2.30;;;4.30;99.90;;;;;;5033184;28;20575;-59
2022/04/18 01:41:31;;;;;;;2.57;2.30;;;4.30;99.90;;;;;;5033084;28;20202;-59
2022/04/18 01:43:58;;;;;;;2.53;2.33;;;4.30;99.90;;;;;;5032976;28;20214;-59
2022/04/18 01:46:25;;;;;;;4.10;2.30;;;4.30;99.90;;;;;;5033145;28;20284;-59
2022/04/18 01:48:52;;;;;;;3.37;3.07;;;4.20;99.90;;;;;;5033014;28;20297;-59
2022/04/18 01:51:19;;;;;;;4.27;3.87;;;4.20;99.90;;;;;;5032660;28;20229;-58
2022/04/18 01:53:48;;;;;;;2.87;2.43;;;4.10;99.90;;;;;;5032829;28;20293;-59
2022/04/18 01:56:14;;;;;;;3.97;2.33;;;4.10;99.90;;;;;;5032488;28;20222;-58
2022/04/18 01:58:41;;;;;;;2.90;2.20;;;3.90;99.90;;;;;;5032477;28;20213;-58
2022/04/18 02:01:08;;;;;;;3.30;2.50;;;3.90;99.90;;;;;;5032732;28;20210;-58
2022/04/18 02:03:34;;;;;;;3.17;2.43;;;3.90;99.90;;;;;;5032827;28;20209;-59
2022/04/18 02:06:01;;;;;;;4.17;2.70;;;4.00;99.90;;;;;;5032783;28;20238;-58
2022/04/18 02:08:28;;;;;;;3.70;2.57;;;4.00;99.90;;;;;;5032674;28;20238;-59
2022/04/18 02:10:56;;;;;;;7.87;4.87;;;4.00;99.90;;;;;;5032287;28;20292;-60
2022/04/18 02:13:22;;;;;;;4.13;3.73;;;4.00;99.90;;;;;;5032436;28;20210;-58
2022/04/18 02:15:49;;;;;;;3.57;2.50;;;4.00;99.90;;;;;;5032615;28;20206;-60
2022/04/18 02:18:16;;;;;;;5.80;4.73;;;4.10;99.90;;;;;;5032550;28;20641;-60
2022/04/18 02:20:43;;;;;;;4.13;2.93;;;4.10;99.90;;;;;;5032391;28;20210;-60
2022/04/18 02:23:09;;;;;;;3.43;2.53;;;4.10;99.90;;;;;;5032461;28;20213;-59
2022/04/18 02:25:36;;;;;;;9.00;5.10;;;4.20;99.90;;;;;;5032343;28;20206;-59
2022/04/18 02:28:05;;;;;;;3.77;2.43;;;4.20;99.90;;;;;;5032007;28;20292;-59
2022/04/18 02:30:31;;;;;;;5.93;2.20;;;4.20;99.90;;;;;;5032560;28;20206;-59
2022/04/18 02:32:59;;;;;;;4.33;2.40;;;4.20;99.90;;;;;;5032227;28;20587;-59
2022/04/18 02:35:26;;;;;;;2.93;2.27;;;4.20;99.90;;;;;;5032292;28;20210;-59
2022/04/18 02:37:54;;;;;;;3.97;2.23;;;4.20;99.90;;;;;;5032174;28;20238;-59
2022/04/18 02:40:22;;;;;;;7.60;3.97;;;4.10;99.90;;;;;;5032159;28;20210;-59
2022/04/18 02:42:49;;;;;;;5.30;2.97;;;4.10;99.90;;;;;;5032041;28;20236;-58
2022/04/18 02:45:18;;;;;;;5.23;3.17;;;4.10;99.90;;;;;;5032195;28;20206;-59
2022/04/18 02:47:46;;;;;;;6.07;3.93;;;4.10;99.90;;;;;;5031943;28;20230;-59
2022/04/18 02:50:13;;;;;;;4.13;3.13;;;4.00;99.90;;;;;;5031954;28;20210;-59
2022/04/18 02:52:39;;;;;;;3.90;2.50;;;4.00;99.90;;;;;;5031953;28;20206;-59
2022/04/18 02:55:07;;;;;;;4.37;3.23;;;3.90;99.90;;;;;;5031858;28;20637;-59
2022/04/18 02:57:34;;;;;;;5.37;3.20;;;3.80;99.90;;;;;;5031994;28;20284;-59
2022/04/18 03:00:01;;;;;;;5.70;3.47;;;3.80;99.90;;;;;;5031938;28;20215;-59
2022/04/18 03:02:29;;;;;;;5.30;3.43;;;3.70;99.90;;;;;;5031879;28;20221;-59
2022/04/18 03:04:57;;;;;;;4.63;3.23;;;3.60;99.90;;;;;;5031874;28;20209;-59
2022/04/18 03:07:24;;;;;;;5.70;3.47;;;3.60;99.90;;;;;;5031713;28;20222;-61
2022/04/18 03:09:50;;;;;;;3.87;2.60;;;3.50;99.90;;;;;;5031785;28;20213;-59
2022/04/18 03:12:17;;;;;;;3.63;2.60;;;3.50;99.90;;;;;;5031953;28;20229;-59
2022/04/18 03:14:44;;;;;;;3.20;2.27;;;3.50;99.90;;;;;;5031915;28;20206;-60
2022/04/18 03:17:11;;;;;;;4.13;2.30;;;3.50;99.90;;;;;;5031834;28;20233;-59
2022/04/18 03:19:40;;;;;;;2.90;2.50;;;3.40;99.90;;;;;;5031946;28;20210;-59
2022/04/18 03:22:07;;;;;;;4.00;2.20;;;3.50;99.90;;;;;;5031516;28;20206;-59
2022/04/18 03:24:34;;;;;;;3.17;2.50;;;3.40;99.90;;;;;;5032098;28;20569;-58
2022/04/18 03:27:01;;;;;;;3.40;2.30;;;3.30;99.90;;;;;;5031806;28;20260;-59
2022/04/18 03:29:28;;;;;;;5.47;4.13;;;3.20;99.90;;;;;;5031723;28;20213;-58
2022/04/18 03:31:54;;;;;;;4.93;3.20;;;3.40;99.90;;;;;;5031551;28;20214;-59
2022/04/18 03:34:21;;;;;;;4.80;3.20;;;3.50;99.90;;;;;;5031728;28;20238;-58
2022/04/18 03:39:52;;;;;;;2.93;2.27;;;3.60;99.90;;;;;;5032175;28;20214;-59
2022/04/18 03:42:28;;;;;;;4.20;2.30;;;3.60;99.90;;;;;;5035493;28;20305;-59
2022/04/18 03:44:56;;;;;;;3.10;2.23;;;3.60;99.90;;;;;;5035464;28;20256;-59
2022/04/18 03:47:23;;;;;;;4.87;2.50;;;3.60;99.90;;;;;;5035249;28;20253;-59
2022/04/18 03:49:49;;;;;;;4.70;2.73;;;3.60;99.90;;;;;;5035534;28;20206;-57
2022/04/18 03:52:17;;;;;;;3.57;2.27;;;3.50;99.90;;;;;;5035285;28;20213;-57
2022/04/18 03:54:46;;;;;;;3.30;2.43;;;3.60;99.90;;;;;;5035323;28;20674;-59
2022/04/18 03:57:13;;;;;;;4.10;2.40;;;3.50;99.90;;;;;;5035098;28;20280;-57
2022/04/18 03:59:40;;;;;;;4.77;2.50;;;3.50;99.90;;;;;;5035332;28;20211;-58
2022/04/18 04:02:07;;;;;;;2.87;2.40;;;3.50;99.90;;;;;;5035346;28;20202;-58
2022/04/18 04:04:34;;;;;;;4.70;2.50;;;3.40;99.90;;;;;;5035219;28;20202;-60
2022/04/18 04:07:00;;;;;;;5.03;2.33;;;3.30;99.90;;;;;;5035055;28;20230;-59
2022/04/18 04:09:28;;;;;;;3.20;2.40;;;3.20;99.90;;;;;;5035225;28;20250;-58
2022/04/18 04:11:55;;;;;;;2.70;2.23;;;3.10;99.90;;;;;;5034900;28;20210;-58
2022/04/18 04:14:22;;;;;;;3.00;2.33;;;2.90;99.90;;;;;;5034990;28;20210;-59
2022/04/18 04:16:49;;;;;;;2.53;2.13;;;2.80;99.90;;;;;;5034991;28;20230;-59
2022/04/18 04:19:16;;;;;;;2.77;2.00;;;2.80;99.90;;;;;;5034959;28;20241;-59
2022/04/18 04:21:43;;;;;;;3.37;2.50;;;2.90;99.90;;;;;;5034771;28;20206;-59
2022/04/18 04:24:09;;;;;;;4.47;3.13;;;3.00;99.90;;;;;;5034730;28;20252;-59
2022/04/18 04:26:37;;;;;;;4.03;2.90;;;3.20;99.90;;;;;;5034515;28;20230;-59
2022/04/18 04:29:04;;;;;;;3.60;2.57;;;3.30;99.90;;;;;;5034673;28;20217;-59
2022/04/18 04:31:31;;;;;;;2.63;2.43;;;3.50;99.90;;;;;;5034408;28;20233;-58
2022/04/18 04:33:57;;;;;;;3.30;3.00;;;3.50;99.90;;;;;;5034552;28;20256;-59
2022/04/18 04:36:24;;;;;;;4.00;3.10;;;3.60;99.90;;;;;;5034296;28;20272;-59
2022/04/18 04:38:51;;;;;;;3.67;2.70;;;3.60;99.90;;;;;;5034266;28;20229;-59
2022/04/18 04:41:18;;;;;;;2.50;2.30;;;3.60;99.90;;;;;;5034103;28;20202;-59
2022/04/18 04:43:46;;;;;;;4.80;3.60;;;3.60;99.90;;;;;;5034483;28;20212;-58
2022/04/18 04:46:12;;;;;;;4.57;3.23;;;3.60;99.90;;;;;;5033889;28;20732;-59
2022/04/18 04:48:39;;;;;;;4.77;3.37;;;3.70;99.90;;;;;;5034235;28;20632;-58
2022/04/18 04:51:06;;;;;;;3.40;2.30;;;3.80;99.90;;;;;;5033576;28;20246;-59
2022/04/18 04:53:32;;;;;;;4.50;2.70;;;3.90;99.90;;;;;;5033643;28;20210;-59
2022/04/18 04:55:59;;;;;;;3.57;2.37;;;3.90;99.90;;;;;;5034200;28;20218;-58
2022/04/18 04:58:27;;;;;;;2.97;2.50;;;4.00;99.90;;;;;;5034082;28;20725;-59
2022/04/18 05:00:55;;;;;;;4.73;2.80;;;4.00;99.90;;;;;;5034063;28;20236;-58
2022/04/18 05:03:22;;;;;;;3.33;2.50;;;4.10;99.90;;;;;;5033715;28;20202;-59
2022/04/18 05:05:48;;;;;;;6.20;3.57;;;4.20;99.90;;;;;;5033903;28;20576;-58
2022/04/18 05:08:15;;;;;;;5.20;3.80;;;4.30;99.90;;;;;;5033563;28;20357;-59
2022/04/18 05:10:42;;;;;;;3.67;2.93;;;4.30;99.90;;;;;;5033956;28;20209;-59
2022/04/18 05:13:08;;;;;;;2.70;2.27;;;4.50;99.90;;;;;;5033737;28;20309;-60
2022/04/18 05:15:35;;;;;;;3.73;2.80;;;4.60;99.90;;;;;;5033636;28;20210;-58
2022/04/18 05:18:03;;;;;;;2.97;2.30;;;4.70;99.90;;;;;;5033279;28;20230;-59
2022/04/18 05:20:31;;;;;;;5.63;2.50;;;4.80;99.90;;;;;;5033599;28;20280;-58
2022/04/18 05:22:58;;;;;;;5.70;2.57;;;4.90;99.90;;;;;;5033177;28;20229;-58
2022/04/18 05:25:25;;;;;;;3.70;2.63;;;4.90;99.70;;;;;;5033585;28;20265;-58
2022/04/18 05:27:52;;;;;;;3.60;2.53;;;5.00;99.60;;;;;;5033387;28;20218;-58
2022/04/18 05:30:19;;;;;;;3.50;2.53;;;5.10;99.50;;;;;;5033480;28;20333;-59
2022/04/18 05:32:45;;;;;;;2.93;2.47;;;5.10;99.40;;;;;;5033184;28;20214;-58
2022/04/18 05:35:13;;;;;;;4.80;2.67;;;5.10;99.40;;;;;;5033419;28;20252;-58
2022/04/18 05:37:41;;;;;;;3.07;2.33;;;5.20;99.30;;;;;;5032989;28;20226;-59
2022/04/18 05:40:09;;;;;;;2.93;2.43;;;5.40;99.10;;;;;;5033351;28;20297;-59
2022/04/18 05:42:35;;;;;;;3.00;2.23;;;5.90;99.40;;;;;;5033030;28;20237;-58
2022/04/18 05:45:02;;;;;;;4.43;2.10;;;7.70;97.10;;;;;;5032891;28;20628;-58
2022/04/18 05:47:29;;;;;;;5.67;2.70;;;9.90;92.80;;;;;;5032975;28;20246;-58
2022/04/18 05:49:55;;;;;;;3.67;2.50;;;11.80;86.70;;;;;;5032944;28;20213;-59
2022/04/18 05:52:24;;;;;;;2.90;2.30;;;13.50;81.60;;;;;;5032565;28;20213;-59
2022/04/18 05:54:50;;;;;;;3.43;2.37;;;15.00;75.80;;;;;;5033082;28;20213;-59
2022/04/18 05:57:17;;;;;;;5.07;3.07;;;16.10;69.50;;;;;;5033075;28;20222;-59
2022/04/18 05:59:44;;;;;;;5.37;2.47;;;16.70;67.50;;;;;;5032683;28;20217;-60
2022/04/18 06:02:11;;;;;;;4.67;2.83;;;17.60;63.90;;;;;;5032354;28;20690;-59
2022/04/18 06:04:37;;;;;;;5.20;3.70;;;18.60;60.90;;;;;;5032358;28;20620;-59
2022/04/18 06:07:04;;;;;;;3.55;2.28;;;19.40;59.00;;;;;;5032755;28;20239;-60
2022/04/18 06:09:32;;;;;;;6.35;3.05;;;20.20;55.70;;;;;;5032852;28;20268;-60
2022/04/18 06:11:59;;;;;;;3.88;3.10;;;21.10;53.80;;;;;;5032523;28;20206;-59
2022/04/18 06:14:26;;;;;;;5.60;3.30;;;21.80;52.90;;;;;;5032634;28;20293;-60
2022/04/18 06:16:53;;;;;;;6.75;4.07;;;22.70;51.00;;;;;;5032415;28;20299;-59
2022/04/18 06:19:19;;;;;;;3.33;2.65;;;23.50;50.30;;;;;;5032426;28;20242;-58
2022/04/18 06:21:48;;;;;;;3.85;2.95;;;24.30;47.90;;;;;;5032437;28;20259;-58
2022/04/18 06:24:14;;;;;;;2.92;2.53;;;25.00;46.40;;;;;;5032559;28;20283;-58
2022/04/18 06:26:42;;;;;;;2.83;2.20;;;25.40;45.30;;;;;;5032302;28;20705;-59
2022/04/18 06:29:09;;;;;;;4.05;2.20;;;25.60;43.30;;;;;;5032570;28;20210;-58
2022/04/18 06:31:36;;;;;;;4.20;2.70;;;24.90;43.00;;;;;;5032571;28;20210;-58
2022/04/18 06:34:02;;;;;;;3.42;2.38;;;24.90;43.30;;;;;;5032594;28;20210;-59
2022/04/18 06:36:29;;;;;;;3.22;2.50;;;25.40;42.00;;;;;;5032229;28;20650;-59
2022/04/18 06:38:56;;;;;;;5.28;2.38;;;25.70;41.40;;;;;;5032210;28;20222;-59
2022/04/18 06:41:23;;;;;;;4.65;2.53;;;26.10;40.60;;;;;;5031903;28;20225;-60
2022/04/18 06:43:51;;;;;;;2.92;2.30;;;26.40;39.80;;;;;;5032027;28;20697;-58
2022/04/18 06:46:18;;;;;;;3.40;2.13;;;26.30;39.00;;;;;;5031703;28;20204;-59
2022/04/18 06:48:44;;;;;;;3.38;2.63;;;26.00;39.10;;;;;;5032233;28;20268;-59
2022/04/18 06:51:11;;;;;;;2.40;2.08;;;26.00;39.50;;;;;;5032053;28;20214;-60
2022/04/18 06:53:38;;;;;;;3.20;2.10;;;26.00;40.00;;;;;;5032391;28;20218;-59
2022/04/18 06:58:51;;;;;;;2.92;2.30;;;26.80;39.10;;;;;;5031926;28;20324;-59
2022/04/18 07:01:17;;;;;;;3.40;2.28;;;26.90;39.20;;;;;;5031731;28;20677;-59
2022/04/18 07:03:44;;;;;;;3.63;2.40;;;27.00;39.30;;;;;;5031900;28;20348;-56
2022/04/18 07:06:11;;;;;;;2.33;2.13;;;27.30;39.40;;;;;;5032220;28;20264;-56
2022/04/18 07:08:38;;;;;;;2.45;2.10;;;27.70;38.50;;;;;;5031989;28;20198;-56
2022/04/18 07:11:05;;;;;;;2.78;2.25;;;28.00;37.80;;;;;;5031877;28;20296;-57
2022/04/18 07:13:32;;;;;;;2.58;2.10;;;28.20;37.80;;;;;;5031651;28;20210;-57
2022/04/18 07:16:00;;;;;;;4.32;2.33;;;28.50;37.10;;;;;;5035018;28;20231;-57
2022/04/18 07:18:28;;;;;;;5.50;2.30;;;28.60;36.80;;;;;;5036160;28;20223;-57
2022/04/18 07:20:54;;;;;;;2.65;2.22;;;28.50;37.00;;;;;;5035928;28;20205;-57
2022/04/18 07:23:21;;;;;;;3.20;2.38;;;28.30;37.30;;;;;;5035637;28;20234;-57
2022/04/18 07:25:48;;;;;;;4.78;3.65;;;28.20;37.30;;;;;;5035612;28;20243;-58
2022/04/18 07:28:14;;;;;;;3.97;3.13;;;28.80;36.40;;;;;;5034895;28;20897;-58
2022/04/18 07:30:41;;;;;;;6.68;2.55;;;28.60;36.70;;;;;;5035449;28;20552;-57
2022/04/18 07:33:10;;;;;;;3.15;2.35;;;28.50;36.80;;;;;;5035512;28;20497;-59
2022/04/18 07:35:36;;;;;;;3.05;2.60;;;28.70;36.70;;;;;;5035516;28;20256;-58
2022/04/18 07:40:47;;;;;;;2.90;2.60;;;28.70;34.90;;;;;;5035634;28;20248;-57
2022/04/18 07:43:14;;;;;;;3.05;2.40;;;28.00;35.40;;;;;;5035234;28;20587;-57
2022/04/18 07:45:40;;;;;;;4.30;2.70;;;27.10;36.60;;;;;;5035392;28;20681;-58
2022/04/18 07:48:09;;;;;;;3.38;2.70;;;27.00;36.30;;;;;;5035668;28;20235;-58
2022/04/18 07:53:19;;;;;;;3.95;2.92;;;27.50;35.80;;;;;;5034996;28;20209;-58
2022/04/18 07:55:47;;;;;;;4.80;2.60;;;27.60;36.10;;;;;;5035280;28;20210;-60
2022/04/18 07:58:13;;;;;;;3.42;2.83;;;27.40;35.90;;;;;;5035086;28;20237;-58
2022/04/18 08:00:40;;;;;;;3.63;2.45;;;27.50;36.40;;;;;;5035163;28;20627;-58
2022/04/18 08:03:08;;;;;;;4.63;3.03;;;27.90;35.60;;;;;;5034848;28;20210;-59
2022/04/18 08:05:35;;;;;;;4.13;2.58;;;28.70;35.30;;;;;;5034897;28;20264;-59
2022/04/18 08:08:01;;;;;;;3.55;2.95;;;29.10;34.30;;;;;;5034614;28;20225;-60
2022/04/18 08:10:29;;;;;;;2.70;2.20;;;29.70;34.50;;;;;;5034898;28;20267;-58
2022/04/18 08:12:56;;;;;;;5.10;2.63;;;29.80;33.50;;;;;;5034523;28;20248;-57
2022/04/18 08:15:22;;;;;;;2.90;2.60;;;29.30;34.50;;;;;;5034790;28;20206;-58
2022/04/18 08:17:49;;;;;;;4.85;2.83;;;28.90;34.80;;;;;;5034515;28;20238;-58
2022/04/18 08:20:17;;;;;;;2.60;2.38;;;27.80;36.00;;;;;;5034890;28;20264;-62
2022/04/18 08:22:44;;;;;;;3.53;2.80;;;25.60;38.70;;;;;;5034530;28;20236;-58
2022/04/18 08:25:11;;;;;;;4.93;2.30;;;23.60;40.40;;;;;;5034649;28;20217;-59
2022/04/18 08:27:37;;;;;;;4.03;2.80;;;21.80;42.10;;;;;;5034274;28;20249;-56
2022/04/18 08:30:04;;;;;;;5.55;3.05;;;20.30;44.00;;;;;;5034450;28;20211;-57
2022/04/18 08:32:34;;;;;;;6.60;3.63;;;19.00;45.70;;;;;;5034727;28;20761;-56
2022/04/18 08:35:01;;;;;;;4.35;3.17;;;17.80;47.70;;;;;;5034681;28;20268;-56
2022/04/18 08:37:29;;;;;;;4.00;2.80;;;16.90;50.20;;;;;;5034257;28;20230;-55
2022/04/18 08:39:55;;;;;;;4.68;2.65;;;16.50;50.60;;;;;;5034435;28;20233;-58
2022/04/18 08:42:24;;;;;;;3.72;2.60;;;16.10;50.60;;;;;;5034174;28;20246;-58
2022/04/18 08:44:51;;;;;;;4.00;2.60;;;15.70;51.60;;;;;;5034551;28;20299;-57
2022/04/18 08:52:46;;;;;;;9.97;4.30;;;14.80;53.50;;;;;;5032843;28;20213;-58
2022/04/18 08:55:13;;;;;;;4.13;2.83;;;14.60;54.10;;;;;;5032764;28;20214;-58
2022/04/18 08:57:41;;;;;;;4.40;2.60;;;14.50;55.20;;;;;;5032627;28;20230;-58
2022/04/18 09:00:08;;;;;;;4.80;3.27;;;14.50;54.60;;;;;;5033010;28;20258;-59
2022/04/18 09:02:35;;;;;;;13.97;9.40;;;14.60;55.20;;;;;;5032805;28;20210;-59
2022/04/18 09:05:02;;;;;;;3.63;2.80;;;14.50;56.10;;;;;;5033042;28;20590;-59
2022/04/18 09:07:29;;;;;;;4.67;2.90;;;14.60;55.40;;;;;;5032684;28;20233;-61
2022/04/18 09:09:58;;;;;;;3.80;3.07;;;14.60;54.00;;;;;;5032922;28;20206;-60
2022/04/18 09:12:28;;;;;;;4.00;2.70;;;14.70;54.00;;;;;;5032654;28;20207;-59
2022/04/18 09:14:55;;;;;;;4.17;2.73;;;14.70;54.10;;;;;;5033164;28;20210;-60
2022/04/18 09:17:30;;;;;;;4.57;2.77;;;14.90;53.80;;;;;;5032607;28;20233;-59
2022/04/18 09:20:05;;;;;;;2.90;2.57;;;14.80;54.00;;;;;;5032561;28;20702;-60
2022/04/18 09:22:32;;;;;;;5.33;3.10;;;14.70;53.50;;;;;;5032411;28;20209;-60
2022/04/18 09:25:00;;;;;;;5.67;2.57;;;14.60;52.80;;;;;;5032986;28;20214;-59
2022/04/18 09:27:29;;;;;;;3.37;2.50;;;14.60;53.10;;;;;;5032864;28;20226;-59
2022/04/18 09:30:03;;;;;;;3.80;2.30;;;14.60;53.40;;;;;;5032906;28;20209;-60
2022/04/18 09:32:30;;;;;;;3.73;2.77;;;14.70;53.00;;;;;;5032219;28;20582;-60
2022/04/18 09:35:01;;;;;;;3.50;2.77;;;14.80;53.10;;;;;;5032246;28;20214;-60
2022/04/18 09:37:30;;;;;;;3.13;2.40;;;14.80;52.70;;;;;;5031363;28;20761;-60
2022/04/18 09:39:58;;;;;;;4.00;2.80;;;14.90;52.60;;;;;;5032358;28;20255;-60
2022/04/18 09:42:27;;;;;;;3.30;2.43;;;14.90;52.90;;;;;;5032012;28;20217;-60
2022/04/18 09:44:54;;;;;;;2.87;2.30;;;15.00;53.40;;;;;;5032465;28;20214;-60
2022/04/18 09:47:23;;;;;;;3.67;2.67;;;15.10;53.10;;;;;;5028106;28;99900;-60
2022/04/18 09:49:50;;;;;;;6.17;2.50;;;15.10;52.90;;;;;;5032705;28;20213;-60
2022/04/18 09:52:19;;;;;;;3.83;2.30;;;15.20;52.80;;;;;;5032896;28;20207;-61
2022/04/18 09:54:46;;;;;;;3.03;2.57;;;15.10;52.10;;;;;;5032951;28;20205;-60
2022/04/18 09:57:13;;;;;;;4.20;2.77;;;15.00;52.40;;;;;;5032583;28;20226;-59
2022/04/18 09:59:41;;;;;;;4.17;2.80;;;15.20;52.50;;;;;;5032593;28;20649;-61
2022/04/18 10:02:13;;;;;;;4.43;2.87;;;15.40;52.20;;;;;;5032480;28;20210;-59
2022/04/18 10:04:41;;;;;;;5.70;2.70;;;15.50;52.20;;;;;;5032852;28;20297;-59
2022/04/18 10:07:09;;;;;;;2.60;2.30;;;15.60;52.40;;;;;;5032446;28;20226;-59
2022/04/18 10:09:39;;;;;;;4.60;2.70;;;15.80;51.90;;;;;;5032310;28;20695;-60
2022/04/18 10:12:06;;;;;;;2.73;2.50;;;15.80;51.60;;;;;;5032228;28;20211;-59
2022/04/18 10:14:33;;;;;;;2.73;2.20;;;15.80;51.40;;;;;;5032242;28;20210;-59
2022/04/18 10:17:03;;;;;;;3.37;2.77;;;15.90;51.10;;;;;;5032633;28;20233;-59
2022/04/18 10:19:53;;;;;;;4.17;2.60;;;16.00;51.00;;;;;;5032621;28;20223;-59
2022/04/18 10:22:43;;;;;;;2.50;2.20;;;16.10;50.60;;;;;;5032257;28;20209;-59
2022/04/18 10:25:21;;;;;;;3.17;2.30;;;16.20;49.90;;;;;;5032390;28;20276;-59
2022/04/18 10:28:09;;;;;;;4.93;2.60;;;16.30;49.40;;;;;;5032817;28;20786;-61
2022/04/18 10:30:42;;;;;;;2.77;2.40;;;16.30;49.50;;;;;;5032990;28;20206;-60
2022/04/18 10:33:13;;;;;;;4.27;2.30;;;16.20;49.70;;;;;;5032471;28;20205;-59
2022/04/18 10:35:47;;;;;;;4.17;2.80;;;16.10;50.10;;;;;;5032657;28;20742;-60
2022/04/18 10:38:14;;;;;;;5.83;2.53;;;16.30;50.60;;;;;;5032710;28;20229;-59
2022/04/18 10:40:41;;;;;;;4.17;2.30;;;16.20;49.60;;;;;;5031918;28;20226;-60
2022/04/18 10:43:10;;;;;;;4.53;2.40;;;16.20;50.20;;;;;;5031981;28;20202;-60
2022/04/18 10:45:38;;;;;;;3.87;2.73;;;16.20;50.10;;;;;;5031811;28;20318;-60
2022/04/18 10:48:11;;;;;;;3.73;2.60;;;16.20;50.10;;;;;;5031728;28;20276;-59
2022/04/18 10:50:43;;;;;;;3.23;2.50;;;16.20;50.00;;;;;;5032116;28;20209;-60
2022/04/18 10:53:12;;;;;;;3.07;2.20;;;16.30;49.70;;;;;;5031961;28;20202;-59
2022/04/18 10:55:41;;;;;;;4.90;2.23;;;16.40;49.30;;;;;;5032022;28;20267;-59
2022/04/18 10:58:13;;;;;;;2.93;2.03;;;16.50;48.90;;;;;;5031951;28;20222;-59
2022/04/18 11:00:50;;;;;;;2.53;2.07;;;16.80;48.50;;;;;;5031347;28;20240;-59
2022/04/18 11:03:46;;;;;;;3.03;2.30;;;17.00;48.70;;;;;;5031297;28;20381;-59
2022/04/18 11:06:47;;;;;;;2.20;2.00;;;16.80;48.80;;;;;;5031870;28;20225;-59
2022/04/18 11:09:16;;;;;;;2.83;2.03;;;17.00;48.30;;;;;;5031828;28;20213;-59
2022/04/18 11:11:47;;;;;;;3.10;2.33;;;17.10;48.10;;;;;;5031920;28;20214;-59
2022/04/18 11:14:19;;;;;;;4.22;2.17;;;17.20;48.30;;;;;;5032097;28;20462;-60
2022/04/18 11:17:00;;;;;;;4.05;2.42;;;17.30;48.50;;;;;;5031815;28;20226;-59
2022/04/18 11:19:30;;;;;;;6.38;3.50;;;17.20;48.10;;;;;;5031818;28;20226;-58
2022/04/18 11:22:05;;;;;;;3.10;2.25;;;17.20;48.10;;;;;;5031565;28;20206;-59
2022/04/18 11:24:37;;;;;;;4.18;3.22;;;17.20;48.80;;;;;;5031723;28;20240;-59
2022/04/18 11:27:06;;;;;;;6.00;3.33;;;17.10;48.70;;;;;;5031692;28;20575;-60
2022/04/18 11:29:33;;;;;;;4.18;2.50;;;17.30;48.60;;;;;;5031613;28;20216;-59
2022/04/18 11:32:00;;;;;;;2.85;2.30;;;17.50;48.20;;;;;;5031451;28;20210;-58
2022/04/18 11:34:30;;;;;;;2.80;2.30;;;17.70;48.40;;;;;;5031594;28;20670;-60
2022/04/18 11:36:58;;;;;;;5.00;2.85;;;17.90;47.80;;;;;;5030902;28;20226;-59
2022/04/18 11:39:25;;;;;;;2.90;1.95;;;18.00;47.60;;;;;;5031439;28;20222;-58
2022/04/18 11:42:05;;;;;;;2.40;1.98;;;18.10;47.50;;;;;;5031402;28;20206;-58
2022/04/18 11:44:38;;;;;;;2.63;2.28;;;18.10;47.10;;;;;;5031765;28;20230;-59
2022/04/18 11:47:08;;;;;;;4.60;2.53;;;18.20;47.60;;;;;;5031495;28;20329;-60
2022/04/18 11:49:36;;;;;;;4.80;2.42;;;18.10;47.60;;;;;;5031649;28;20203;-60
2022/04/18 11:52:03;;;;;;;2.80;2.08;;;18.10;47.40;;;;;;5031731;28;20214;-61
2022/04/18 11:54:30;;;;;;;3.72;2.20;;;18.00;47.80;;;;;;5031232;28;20264;-60
2022/04/18 11:57:00;;;;;;;2.75;2.00;;;18.10;47.60;;;;;;5031515;28;20252;-60
2022/04/18 11:59:28;;;;;;;3.22;2.17;;;18.10;48.30;;;;;;5031495;28;20313;-59
2022/04/18 12:07:26;;;;;;;2.85;2.50;;;18.10;48.20;;;;;;5034850;28;20344;-59
2022/04/18 12:09:53;;;;;;;5.50;2.60;;;18.10;48.20;;;;;;5035186;28;20206;-59
2022/04/18 12:12:28;;;;;;;2.93;2.50;;;18.20;47.90;;;;;;5034870;28;20264;-59
2022/04/18 12:14:54;;;;;;;3.92;2.17;;;18.20;48.20;;;;;;5034621;28;20701;-59
2022/04/18 12:17:21;;;;;;;6.47;3.97;;;18.30;48.50;;;;;;5034554;28;20254;-59
2022/04/18 12:19:52;;;;;;;3.40;2.13;;;18.30;47.60;;;;;;5034151;28;20702;-59
2022/04/18 12:22:22;;;;;;;3.83;2.08;;;18.20;48.10;;;;;;5034339;28;20675;-59
2022/04/18 12:24:49;;;;;;;3.58;2.33;;;18.30;48.00;;;;;;5034742;28;20241;-59
2022/04/18 12:27:17;;;;;;;6.28;5.32;;;18.50;47.70;;;;;;5034542;28;20225;-58
2022/04/18 12:29:44;;;;;;;3.40;2.30;;;18.50;47.70;;;;;;5034492;28;20264;-59
2022/04/18 12:32:25;;;;;;;2.55;2.08;;;18.60;47.40;;;;;;5034207;28;20214;-59
2022/04/18 12:34:53;;;;;;;3.00;2.30;;;18.80;47.40;;;;;;5034432;28;20293;-59
2022/04/18 12:37:25;;;;;;;4.70;2.40;;;18.90;47.20;;;;;;5034551;28;20254;-59
2022/04/18 12:40:09;;;;;;;3.05;2.33;;;19.00;47.30;;;;;;5034592;28;20579;-59
2022/04/18 12:42:36;;;;;;;2.60;2.13;;;19.00;47.00;;;;;;5034641;28;20207;-59
2022/04/18 12:45:03;;;;;;;2.80;2.20;;;19.00;47.20;;;;;;5034546;28;20214;-59
2022/04/18 12:47:32;;;;;;;2.63;2.20;;;19.10;47.10;;;;;;5034386;28;20242;-59
2022/04/18 12:50:09;;;;;;;3.72;2.00;;;19.10;46.90;;;;;;5034412;28;20206;-59
2022/04/18 12:52:45;;;;;;;3.17;2.30;;;19.00;46.80;;;;;;5033889;28;20210;-59
2022/04/18 12:55:12;;;;;;;2.40;1.95;;;19.00;46.80;;;;;;5034021;28;20236;-60
2022/04/18 12:57:39;;;;;;;4.35;2.80;;;19.00;46.20;;;;;;5034350;28;20226;-59
2022/04/18 13:00:10;;;;;;;4.17;2.17;;;18.80;46.70;;;;;;5034187;28;20309;-60
2022/04/18 13:02:38;;;;;;;2.80;2.30;;;18.70;46.60;;;;;;5034295;28;20260;-58
2022/04/18 13:05:08;;;;;;;5.28;1.98;;;18.70;46.60;;;;;;5034034;28;20214;-59
2022/04/18 13:07:40;;;;;;;2.75;1.92;;;18.80;46.70;;;;;;5033631;28;20230;-59
2022/04/18 13:10:08;;;;;;;2.65;2.10;;;18.90;46.80;;;;;;5034130;28;20244;-58
2022/04/18 13:12:35;;;;;;;4.35;2.28;;;18.90;46.70;;;;;;5032762;28;20206;-59
2022/04/18 13:15:05;;;;;;;3.42;2.15;;;18.80;46.80;;;;;;5034155;28;20206;-58
2022/04/18 13:17:35;;;;;;;2.60;2.05;;;18.80;47.60;;;;;;5033781;28;20236;-58
2022/04/18 13:20:06;;;;;;;3.78;2.45;;;18.90;46.90;;;;;;5033773;28;20218;-59